Grenloch, New Jersey
Current Conditions -  °F | °C
As of 11:54 AM on Friday 28 Nov 2014 (Local Time) from KPHL Reporting Station
Broken Clouds Broken Clouds  
Wind Chill: 27°   Ceiling: 4800
Heat Index: 37°   Visibility: 10mi
Dew Point: 17°   Wind: 20mph
Humidity: 44%   Direction: 310°NW
Pressure: 30.23"   Gusts: 25mph
Location:  39.79°N, 75.06°W
Report Text: KPHL 281654Z 31017G22KT 10SM BKN048 03/M08 A3023 RMK AO2 SLP236 VIRGA N T00281083 $
Loading
Personal Weather Stations






























Interactive Weather Map New forecast layout! Learn more

10-Day Weather Forecast

Advertisements
Track Severe Weather on mobile